Time;durP1;ratioP1;P1;durP2;ratioP2;P2;SDS_P1;SDS_P2;PMS_P1;PMS_P2;Temp;Humidity;BMP_temperature;BMP_pressure;BME280_temperature;BME280_humidity;BME280_pressure;Samples;Min_cycle;Max_cycle;Signal;HPM_P1;HPM_P2
2022/04/19 00:00:27;;;;;;;8.48;5.25;;;10.80;98.50;;;;;;5130202;27;20039;-82
2022/04/19 00:02:53;;;;;;;8.73;5.55;;;10.70;98.70;;;;;;5112768;27;20031;-83
2022/04/19 00:05:19;;;;;;;8.73;6.05;;;10.70;98.80;;;;;;5130205;27;20035;-82
2022/04/19 00:07:44;;;;;;;7.95;5.30;;;10.70;99.30;;;;;;5113680;27;20073;-82
2022/04/19 00:10:11;;;;;;;8.55;5.78;;;10.60;99.40;;;;;;5114252;27;20067;-83
2022/04/19 00:12:37;;;;;;;10.18;5.40;;;10.50;99.70;;;;;;5112984;27;20043;-82
2022/04/19 00:15:04;;;;;;;11.00;5.82;;;10.50;99.60;;;;;;5096374;27;20566;-81
2022/04/19 00:17:29;;;;;;;9.35;5.57;;;10.50;99.70;;;;;;5112703;27;20129;-82
2022/04/19 00:19:55;;;;;;;8.32;5.82;;;10.40;99.90;;;;;;5130403;27;20114;-82
2022/04/19 00:22:21;;;;;;;9.63;5.95;;;10.40;99.60;;;;;;5128068;27;20062;-82
2022/04/19 00:24:47;;;;;;;8.10;5.57;;;10.40;99.50;;;;;;5096149;27;20035;-82
2022/04/19 00:27:13;;;;;;;9.95;5.90;;;10.40;99.70;;;;;;5129919;27;20780;-82
2022/04/19 00:29:41;;;;;;;11.75;6.80;;;10.40;99.80;;;;;;5112832;27;20045;-82
2022/04/19 00:32:08;;;;;;;9.43;6.07;;;10.40;99.70;;;;;;5129955;27;20047;-82
2022/04/19 00:34:34;;;;;;;9.50;6.25;;;10.40;99.80;;;;;;5129504;27;20035;-82
2022/04/19 00:37:01;;;;;;;10.20;6.57;;;10.30;99.90;;;;;;5130179;27;20088;-82
2022/04/19 00:39:27;;;;;;;10.85;6.45;;;10.30;99.90;;;;;;5092983;27;20289;-82
2022/04/19 00:41:55;;;;;;;10.40;6.40;;;10.30;99.90;;;;;;5112245;27;20043;-82
2022/04/19 00:44:23;;;;;;;11.95;6.90;;;10.30;99.90;;;;;;5129711;27;20479;-82
2022/04/19 00:46:49;;;;;;;8.85;6.05;;;10.30;99.90;;;;;;5095890;27;20043;-82
2022/04/19 00:49:15;;;;;;;9.60;6.07;;;10.20;99.90;;;;;;5079251;27;20031;-82
2022/04/19 00:51:41;;;;;;;9.75;6.55;;;10.20;99.90;;;;;;5112248;27;20035;-82
2022/04/19 00:54:07;;;;;;;11.80;6.32;;;10.20;99.90;;;;;;5112376;27;20380;-81
2022/04/19 00:56:33;;;;;;;8.50;6.22;;;10.20;99.90;;;;;;5111910;27;20076;-81
2022/04/19 00:58:58;;;;;;;12.68;6.90;;;10.10;99.90;;;;;;5107281;27;20470;-82
2022/04/19 01:01:24;;;;;;;11.50;6.30;;;10.10;99.90;;;;;;5090113;27;20031;-82
2022/04/19 01:03:50;;;;;;;9.27;6.30;;;10.10;99.90;;;;;;5112460;27;20474;-82
2022/04/19 01:06:16;;;;;;;10.80;6.40;;;10.10;99.90;;;;;;5095549;27;20648;-82
2022/04/19 01:08:44;;;;;;;8.27;6.15;;;10.00;99.90;;;;;;5128991;27;20050;-82
2022/04/19 01:13:55;;;;;;;11.27;7.03;;;10.00;99.90;;;;;;5126880;27;20057;-82
2022/04/19 01:16:21;;;;;;;11.07;6.57;;;10.00;99.90;;;;;;5111707;27;20035;-84
2022/04/19 01:18:46;;;;;;;9.98;6.45;;;10.70;99.90;;;;;;5112096;27;20101;-82
2022/04/19 01:21:12;;;;;;;10.88;6.28;;;10.00;99.90;;;;;;5112326;27;20447;-82
2022/04/19 01:23:41;;;;;;;10.27;6.70;;;10.00;99.90;;;;;;5111582;27;20035;-82
2022/04/19 01:26:07;;;;;;;10.75;7.10;;;10.00;99.90;;;;;;5111919;27;20057;-82
2022/04/19 01:28:33;;;;;;;9.80;6.70;;;10.00;99.90;;;;;;5128300;27;20100;-80
2022/04/19 01:30:59;;;;;;;10.83;7.10;;;9.80;99.90;;;;;;5112347;27;20047;-82
2022/04/19 01:33:25;;;;;;;10.38;6.70;;;9.80;99.90;;;;;;5127280;27;20302;-82
2022/04/19 01:35:50;;;;;;;10.85;7.07;;;9.60;99.90;;;;;;5111778;27;20035;-81
2022/04/19 01:38:16;;;;;;;8.55;6.13;;;9.80;99.90;;;;;;5111618;27;20100;-82
2022/04/19 01:40:42;;;;;;;10.87;6.83;;;9.50;99.90;;;;;;5094153;27;20035;-83
2022/04/19 01:43:07;;;;;;;10.52;6.85;;;9.50;99.90;;;;;;5062445;28;20130;-82
2022/04/19 01:45:34;;;;;;;10.37;6.97;;;9.50;99.90;;;;;;5122849;27;20047;-82
2022/04/19 01:48:00;;;;;;;11.38;7.20;;;9.50;99.90;;;;;;5110795;28;20790;-82
2022/04/19 01:50:28;;;;;;;10.52;7.18;;;9.50;99.90;;;;;;5095737;28;20038;-82
2022/04/19 01:52:56;;;;;;;11.23;7.18;;;9.60;99.90;;;;;;5122126;28;20046;-82
2022/04/19 01:55:23;;;;;;;11.07;7.07;;;10.00;99.90;;;;;;5121474;27;20042;-82
2022/04/19 01:57:57;;;;;;;10.60;6.85;;;9.40;99.90;;;;;;5111409;28;20043;-81
2022/04/19 02:00:29;;;;;;;11.38;7.10;;;9.40;99.90;;;;;;5116776;28;20063;-82
2022/04/19 02:02:56;;;;;;;10.80;7.20;;;9.40;99.90;;;;;;5119071;27;20114;-82
2022/04/19 02:05:22;;;;;;;11.40;6.88;;;9.30;99.90;;;;;;5102675;28;20096;-82
2022/04/19 02:07:48;;;;;;;10.88;6.90;;;9.20;99.90;;;;;;5127147;27;20121;-82
2022/04/19 02:10:16;;;;;;;10.80;7.33;;;9.20;99.90;;;;;;5093532;28;20505;-82
2022/04/19 02:12:42;;;;;;;11.32;7.50;;;9.30;99.90;;;;;;5126146;27;20309;-82
2022/04/19 02:15:09;;;;;;;10.80;7.68;;;9.20;99.90;;;;;;5094461;28;20046;-82
2022/04/19 02:17:41;;;;;;;;;;;9.20;99.90;;;;;;5128363;27;20100;-82
2022/04/19 02:20:07;;;;;;;10.52;7.72;;;9.10;99.90;;;;;;5126669;27;19961;-82
2022/04/19 02:22:33;;;;;;;12.82;7.82;;;9.10;99.90;;;;;;5110211;27;20374;-82
2022/04/19 02:24:59;;;;;;;10.77;6.97;;;9.10;99.90;;;;;;5091453;28;20042;-82
2022/04/19 02:27:31;;;;;;;12.65;7.43;;;9.00;99.90;;;;;;5115819;28;20035;-82
2022/04/19 02:29:57;;;;;;;14.35;7.50;;;9.20;99.90;;;;;;5111390;28;20039;-82
2022/04/19 02:32:23;;;;;;;11.15;7.88;;;9.00;99.90;;;;;;5113036;27;20495;-81
2022/04/19 02:34:49;;;;;;;;;;;9.00;99.90;;;;;;5109148;28;20043;-81
2022/04/19 02:37:17;;;;;;;11.70;7.45;;;8.90;99.90;;;;;;5128548;27;19988;-81
2022/04/19 02:39:42;;;;;;;11.82;7.20;;;8.90;99.90;;;;;;5110812;28;20063;-81
2022/04/19 02:42:08;;;;;;;10.98;7.60;;;8.90;99.90;;;;;;5103443;28;20086;-83
2022/04/19 02:44:34;;;;;;;14.52;8.18;;;8.80;99.90;;;;;;5107332;28;20047;-81
2022/04/19 02:47:02;;;;;;;10.10;7.30;;;8.80;99.90;;;;;;5090412;28;20490;-82
2022/04/19 02:49:28;;;;;;;11.23;7.75;;;8.80;99.90;;;;;;5117256;28;20544;-81
2022/04/19 02:51:55;;;;;;;11.68;7.35;;;8.70;99.90;;;;;;5096537;28;20051;-82
2022/04/19 02:54:20;;;;;;;;;;;8.80;99.90;;;;;;5078389;28;20036;-82
2022/04/19 02:56:47;;;;;;;9.60;6.93;;;8.80;99.90;;;;;;5079831;28;19945;-81
2022/04/19 02:59:13;;;;;;;13.07;7.20;;;8.70;99.90;;;;;;5116182;27;20099;-81
2022/04/19 03:01:39;;;;;;;14.43;7.93;;;8.60;99.90;;;;;;5111522;27;20443;-82
2022/04/19 03:04:05;;;;;;;11.23;7.07;;;8.50;99.90;;;;;;5115967;27;20040;-82
2022/04/19 03:06:30;;;;;;;10.68;7.47;;;8.60;99.90;;;;;;5095193;27;20327;-82
2022/04/19 03:08:56;;;;;;;12.02;7.28;;;8.50;99.90;;;;;;5129932;27;20115;-86
2022/04/19 03:11:22;;;;;;;13.55;7.50;;;8.50;99.90;;;;;;5104636;27;20503;-82
2022/04/19 03:13:48;;;;;;;12.70;6.87;;;8.50;99.90;;;;;;5104058;27;20148;-82
2022/04/19 03:16:14;;;;;;;13.10;7.40;;;8.50;99.90;;;;;;5092634;27;20486;-82
2022/04/19 03:18:43;;;;;;;11.23;7.47;;;9.00;99.90;;;;;;5097182;27;20061;-82
2022/04/19 03:21:13;;;;;;;10.40;7.05;;;8.40;99.90;;;;;;5108605;27;21397;-82
2022/04/19 03:29:10;;;;;;;10.55;7.15;;;8.60;99.90;;;;;;5131132;27;20160;-82
2022/04/19 03:31:36;;;;;;;;;;;8.30;99.90;;;;;;5097168;27;20035;-82
2022/04/19 03:34:03;;;;;;;9.85;6.75;;;8.20;99.90;;;;;;5130002;27;19922;-82
2022/04/19 03:36:29;;;;;;;11.43;7.28;;;8.20;99.90;;;;;;5091784;27;20058;-82
2022/04/19 03:38:55;;;;;;;11.75;7.30;;;8.20;99.90;;;;;;5130009;27;20038;-82
2022/04/19 03:41:21;;;;;;;9.70;6.72;;;8.20;99.90;;;;;;5103757;27;20035;-81
2022/04/19 03:43:47;;;;;;;11.70;7.55;;;8.30;99.90;;;;;;5133979;27;20046;-81
2022/04/19 03:46:13;;;;;;;12.35;6.90;;;8.10;99.90;;;;;;5082217;27;20031;-81
2022/04/19 03:48:38;;;;;;;11.30;7.25;;;8.10;99.90;;;;;;5141426;27;20063;-81
2022/04/19 03:51:04;;;;;;;12.93;7.30;;;8.10;99.90;;;;;;5137678;27;20513;-82
2022/04/19 03:53:30;;;;;;;10.00;6.97;;;8.00;99.90;;;;;;5145960;27;20127;-81
2022/04/19 03:55:58;;;;;;;12.75;7.55;;;8.00;99.90;;;;;;5099378;27;20388;-82
2022/04/19 03:58:26;;;;;;;10.00;6.97;;;7.90;99.90;;;;;;5141907;27;20506;-82
2022/04/19 04:00:53;;;;;;;9.90;6.78;;;8.00;99.90;;;;;;5134100;27;20509;-82
2022/04/19 04:03:19;;;;;;;11.55;7.22;;;7.90;99.90;;;;;;5099392;27;20039;-81
2022/04/19 04:05:45;;;;;;;11.32;7.30;;;7.90;99.90;;;;;;5092573;27;20141;-82
2022/04/19 04:08:10;;;;;;;9.68;6.68;;;7.90;99.90;;;;;;5104800;27;21577;-81
2022/04/19 04:10:36;;;;;;;10.07;7.03;;;7.80;99.90;;;;;;5099336;27;20037;-82
2022/04/19 04:13:04;;;;;;;13.13;7.53;;;7.80;99.90;;;;;;5129227;27;20329;-82
2022/04/19 04:15:30;;;;;;;9.98;6.90;;;7.80;99.90;;;;;;5133420;27;20034;-81
2022/04/19 04:17:55;;;;;;;10.73;7.20;;;7.70;99.90;;;;;;5102212;27;21845;-81
2022/04/19 04:20:21;;;;;;;9.70;6.47;;;7.70;99.90;;;;;;5137565;27;20075;-82
2022/04/19 04:22:47;;;;;;;11.73;6.60;;;7.70;99.90;;;;;;5132503;27;20300;-82
2022/04/19 04:25:13;;;;;;;10.80;7.00;;;7.70;99.90;;;;;;5133713;27;20045;-82
2022/04/19 04:27:38;;;;;;;11.90;6.77;;;7.60;99.90;;;;;;5115822;27;20046;-82
2022/04/19 04:30:06;;;;;;;8.73;6.17;;;7.60;99.90;;;;;;5099763;27;20078;-83
2022/04/19 04:32:32;;;;;;;10.00;6.82;;;7.60;99.90;;;;;;5129900;27;20043;-83
2022/04/19 04:34:58;;;;;;;13.18;7.50;;;7.60;99.90;;;;;;5142262;27;20116;-81
2022/04/19 04:37:24;;;;;;;13.15;7.00;;;7.60;99.90;;;;;;5129024;27;20121;-81
2022/04/19 04:39:49;;;;;;;11.95;7.32;;;7.50;99.90;;;;;;5132894;27;20449;-81
2022/04/19 04:42:15;;;;;;;11.90;7.50;;;7.50;99.90;;;;;;5123823;27;20401;-81
2022/04/19 04:44:41;;;;;;;10.20;6.85;;;7.90;99.90;;;;;;5133036;27;20041;-82
2022/04/19 04:49:51;;;;;;;11.23;6.80;;;7.50;99.90;;;;;;5170227;27;20287;-80
2022/04/19 04:52:18;;;;;;;9.27;6.53;;;7.50;99.90;;;;;;5106386;27;20140;-81
2022/04/19 04:54:44;;;;;;;12.35;6.85;;;7.60;99.90;;;;;;5123083;27;20054;-79
2022/04/19 04:57:10;;;;;;;11.88;7.75;;;8.30;99.90;;;;;;5138668;27;20034;-78
2022/04/19 04:59:36;;;;;;;11.82;6.90;;;7.50;99.90;;;;;;5115653;27;20076;-81
2022/04/19 05:02:03;;;;;;;14.07;7.65;;;7.50;99.90;;;;;;5115618;27;20041;-80
2022/04/19 05:04:29;;;;;;;11.52;7.25;;;7.50;99.90;;;;;;5099924;27;20047;-79
2022/04/19 05:06:55;;;;;;;12.05;7.20;;;7.50;99.90;;;;;;5121665;27;20102;-80
2022/04/19 05:09:21;;;;;;;12.65;7.78;;;8.30;99.90;;;;;;5154511;27;20057;-81
2022/04/19 05:11:50;;;;;;;10.82;7.05;;;7.50;99.90;;;;;;5136335;27;20034;-81
2022/04/19 05:14:16;;;;;;;15.85;7.40;;;8.50;99.90;;;;;;5154052;27;20098;-80
2022/04/19 05:16:42;;;;;;;12.23;7.43;;;7.60;99.90;;;;;;5153458;27;20050;-80
2022/04/19 05:19:09;;;;;;;12.90;7.45;;;7.60;99.90;;;;;;5120067;27;20034;-81
2022/04/19 05:21:37;;;;;;;;;;;7.70;99.90;;;;;;5137402;27;20457;-81
2022/04/19 05:24:04;;;;;;;11.48;7.75;;;7.70;99.90;;;;;;5102822;27;19919;-81
2022/04/19 05:26:30;;;;;;;12.93;7.78;;;7.70;99.90;;;;;;5104692;27;20038;-80
2022/04/19 05:28:56;;;;;;;12.45;7.65;;;7.80;99.90;;;;;;5153614;27;20038;-81
2022/04/19 05:31:22;;;;;;;11.95;7.57;;;7.80;99.90;;;;;;5134264;27;20038;-81
2022/04/19 05:33:48;;;;;;;14.10;8.60;;;8.20;99.90;;;;;;5115365;27;20487;-81
2022/04/19 05:36:14;;;;;;;12.57;7.90;;;8.30;99.90;;;;;;5093083;27;20383;-81
2022/04/19 05:38:39;;;;;;;11.80;7.75;;;8.00;99.90;;;;;;5090116;27;20039;-81
2022/04/19 05:41:05;;;;;;;12.70;7.77;;;8.10;99.90;;;;;;5084824;27;20030;-81
2022/04/19 05:43:31;;;;;;;12.93;7.63;;;8.20;99.90;;;;;;5113372;27;20376;-80
2022/04/19 05:45:59;;;;;;;12.17;8.03;;;8.30;99.90;;;;;;5132180;27;20437;-81
2022/04/19 05:48:25;;;;;;;14.88;7.72;;;8.40;99.90;;;;;;5136373;27;20279;-80
2022/04/19 05:50:51;;;;;;;11.18;7.32;;;8.60;99.90;;;;;;5136030;27;20068;-80
2022/04/19 05:53:18;;;;;;;14.40;8.68;;;8.50;99.90;;;;;;5136380;27;20171;-81
2022/04/19 05:55:44;;;;;;;;;;;8.60;99.90;;;;;;5153416;27;20113;-81
2022/04/19 05:58:09;;;;;;;15.80;7.55;;;8.70;99.90;;;;;;5171079;27;19961;-81
2022/04/19 06:00:35;;;;;;;12.67;7.63;;;8.80;99.90;;;;;;5119171;27;20057;-80
2022/04/19 06:05:45;;;;;;;12.75;7.85;;;9.00;99.90;;;;;;5143964;27;20099;-81
2022/04/19 06:08:11;;;;;;;12.47;7.80;;;9.20;99.90;;;;;;5123176;27;20125;-82
2022/04/19 06:10:36;;;;;;;14.23;7.88;;;9.20;99.90;;;;;;5120866;27;20280;-81
2022/04/19 06:13:02;;;;;;;12.67;7.93;;;9.30;99.90;;;;;;5124025;27;20117;-80
2022/04/19 06:15:28;;;;;;;14.02;7.55;;;9.30;99.90;;;;;;5153605;27;20037;-80
2022/04/19 06:17:53;;;;;;;14.13;7.70;;;9.50;99.90;;;;;;5084575;27;20042;-80
2022/04/19 06:20:19;;;;;;;12.90;7.85;;;9.60;99.90;;;;;;5119235;27;20125;-80
2022/04/19 06:22:45;;;;;;;14.27;7.65;;;9.80;99.90;;;;;;5135906;27;20031;-81
2022/04/19 06:25:12;;;;;;;14.73;8.15;;;10.00;99.90;;;;;;5119485;27;20042;-81
2022/04/19 06:27:38;;;;;;;12.48;7.63;;;10.00;99.90;;;;;;5106417;27;20397;-80
2022/04/19 06:30:04;;;;;;;14.55;7.60;;;10.10;99.90;;;;;;5157080;27;20067;-81
2022/04/19 06:32:30;;;;;;;11.25;7.25;;;10.30;99.90;;;;;;5140395;27;20124;-80
2022/04/19 06:34:56;;;;;;;12.43;7.80;;;10.30;99.90;;;;;;5139369;27;20117;-80
2022/04/19 06:37:25;;;;;;;12.20;7.50;;;10.50;99.90;;;;;;5122963;27;20696;-80
2022/04/19 06:39:50;;;;;;;10.25;6.47;;;10.80;99.90;;;;;;5122649;27;20030;-81
2022/04/19 06:42:16;;;;;;;12.63;7.15;;;11.30;99.90;;;;;;5139645;27;20048;-80
2022/04/19 06:44:42;;;;;;;11.00;6.22;;;11.90;99.90;;;;;;5107650;27;20371;-81
2022/04/19 06:47:08;;;;;;;11.52;6.47;;;12.20;99.90;;;;;;5136003;27;20050;-80
2022/04/19 06:49:34;;;;;;;10.77;6.47;;;12.70;99.90;;;;;;5119504;27;20187;-80
2022/04/19 06:52:00;;;;;;;12.60;6.00;;;12.90;99.90;;;;;;5121502;27;20038;-80
2022/04/19 06:54:26;;;;;;;18.58;6.80;;;13.20;99.90;;;;;;5122881;27;20477;-80
2022/04/19 06:56:51;;;;;;;9.07;6.03;;;13.60;99.90;;;;;;5121940;27;20038;-80
2022/04/19 06:59:17;;;;;;;13.25;6.38;;;13.80;99.90;;;;;;5088385;27;20293;-80
2022/04/19 07:01:43;;;;;;;11.10;5.72;;;14.10;99.90;;;;;;5084891;27;20123;-81
2022/04/19 07:04:09;;;;;;;9.38;5.82;;;14.40;99.90;;;;;;5135485;27;20082;-80
2022/04/19 07:06:36;;;;;;;9.45;5.55;;;14.90;99.90;;;;;;5119010;27;20039;-81
2022/04/19 07:09:02;;;;;;;10.35;5.63;;;15.20;99.90;;;;;;5149322;27;20485;-80
2022/04/19 07:11:28;;;;;;;10.70;5.80;;;15.60;99.90;;;;;;5139543;27;20435;-81
2022/04/19 07:13:54;;;;;;;10.15;5.32;;;15.40;99.90;;;;;;5138580;27;20038;-80
2022/04/19 07:16:20;;;;;;;8.35;5.38;;;15.50;99.90;;;;;;5105218;27;20026;-80
2022/04/19 07:18:46;;;;;;;9.45;5.63;;;15.60;99.90;;;;;;5139089;27;20122;-80
2022/04/19 07:26:45;;;;;;;10.98;6.05;;;15.40;99.90;;;;;;5156151;27;20048;-80
2022/04/19 07:29:12;;;;;;;10.82;6.13;;;15.60;99.90;;;;;;5118573;27;20101;-80
2022/04/19 07:31:43;;;;;;;9.57;5.93;;;15.60;99.90;;;;;;5138719;27;20038;-81
2022/04/19 07:34:10;;;;;;;10.02;6.05;;;15.70;99.90;;;;;;5155633;27;20052;-79
2022/04/19 07:36:39;;;;;;;7.28;5.80;;;15.90;99.90;;;;;;5155206;27;20030;-81
2022/04/19 07:39:06;;;;;;;9.20;6.03;;;16.10;99.90;;;;;;5138153;27;20141;-80
2022/04/19 07:41:34;;;;;;;8.65;6.03;;;15.90;99.90;;;;;;5138659;27;20038;-80
2022/04/19 07:44:04;;;;;;;8.98;5.53;;;16.00;99.90;;;;;;5138238;27;20081;-79
2022/04/19 07:46:31;;;;;;;9.60;5.43;;;16.40;99.90;;;;;;5132000;27;20056;-80
2022/04/19 07:48:57;;;;;;;7.75;5.53;;;16.40;99.90;;;;;;5121290;27;20784;-81
2022/04/19 07:51:24;;;;;;;8.98;5.72;;;16.30;99.70;;;;;;5128151;27;20075;-80
2022/04/19 07:53:50;;;;;;;9.05;4.90;;;16.40;99.80;;;;;;5117843;27;20031;-80
2022/04/19 07:56:16;;;;;;;8.20;4.93;;;16.90;99.70;;;;;;5134322;27;20038;-80
2022/04/19 07:58:43;;;;;;;8.07;5.43;;;17.30;98.70;;;;;;5135687;27;20079;-80
2022/04/19 08:01:10;;;;;;;7.85;5.03;;;16.70;98.30;;;;;;5107440;27;20546;-81
2022/04/19 08:03:36;;;;;;;7.55;4.95;;;16.90;98.00;;;;;;5108523;27;20034;-81
2022/04/19 08:06:02;;;;;;;7.90;4.70;;;17.20;98.70;;;;;;5137741;27;20111;-80
2022/04/19 08:08:28;;;;;;;6.25;4.28;;;17.20;97.60;;;;;;5138580;27;20042;-81
2022/04/19 08:10:53;;;;;;;5.95;3.28;;;17.60;97.30;;;;;;5155065;27;20038;-80
2022/04/19 08:13:19;;;;;;;6.28;3.75;;;17.50;95.90;;;;;;5137769;27;20038;-80
2022/04/19 08:15:46;;;;;;;5.50;3.88;;;17.50;95.10;;;;;;5137731;27;20030;-80
2022/04/19 08:18:16;;;;;;;7.22;3.85;;;17.70;94.80;;;;;;5120652;27;20415;-79
2022/04/19 08:20:42;;;;;;;7.30;3.70;;;17.90;94.00;;;;;;5155011;27;20034;-79
2022/04/19 08:23:09;;;;;;;6.75;3.20;;;17.90;94.50;;;;;;5137506;27;20049;-79
2022/04/19 08:25:36;;;;;;;4.55;3.38;;;18.20;93.80;;;;;;5098040;27;20041;-79
2022/04/19 08:28:01;;;;;;;5.28;3.10;;;18.10;92.70;;;;;;5148465;27;20390;-80
2022/04/19 08:30:27;;;;;;;3.85;2.42;;;18.20;92.60;;;;;;5149838;27;20042;-80
2022/04/19 08:32:53;;;;;;;4.90;2.55;;;18.30;90.80;;;;;;5100049;27;20084;-80
2022/04/19 08:35:19;;;;;;;4.10;2.50;;;18.40;90.30;;;;;;5116969;27;20034;-80
2022/04/19 08:37:45;;;;;;;3.60;2.10;;;18.30;90.30;;;;;;5134003;27;20038;-80
2022/04/19 08:40:13;;;;;;;2.75;1.77;;;18.60;86.00;;;;;;5100010;27;20498;-79
2022/04/19 08:42:40;;;;;;;3.03;1.70;;;18.60;84.90;;;;;;5113396;27;20383;-80
2022/04/19 08:45:10;;;;;;;2.53;1.70;;;18.60;83.60;;;;;;5130247;27;20096;-80
2022/04/19 08:47:40;;;;;;;5.90;1.65;;;19.00;82.00;;;;;;5113844;27;20478;-80
2022/04/19 08:50:10;;;;;;;2.47;1.27;;;18.80;81.50;;;;;;5130136;27;20061;-80
2022/04/19 08:52:36;;;;;;;6.65;2.05;;;19.10;82.60;;;;;;5130780;27;20455;-79
2022/04/19 08:57:46;;;;;;;1.75;0.90;;;19.40;78.40;;;;;;5130310;27;20421;-80
2022/04/19 09:00:13;;;;;;;4.93;1.00;;;19.80;79.30;;;;;;5113063;27;20071;-80
2022/04/19 09:02:38;;;;;;;1.38;0.80;;;19.80;76.20;;;;;;5096622;27;20501;-80
2022/04/19 09:05:11;;;;;;;2.53;1.08;;;19.80;74.20;;;;;;5112720;27;20039;-79
2022/04/19 09:07:37;;;;;;;2.42;1.10;;;19.70;74.70;;;;;;5130461;27;20043;-80
2022/04/19 09:10:06;;;;;;;1.90;1.00;;;19.80;74.90;;;;;;5095565;27;20046;-80
2022/04/19 09:12:32;;;;;;;3.28;1.00;;;19.70;74.70;;;;;;5113189;27;20502;-80
2022/04/19 09:15:00;;;;;;;2.25;1.13;;;19.40;75.00;;;;;;5129934;27;20475;-80
2022/04/19 09:17:40;;;;;;;2.10;0.85;;;19.60;75.10;;;;;;5130034;27;20050;-79
2022/04/19 09:20:15;;;;;;;3.95;1.60;;;19.90;75.30;;;;;;5129772;27;20035;-80
2022/04/19 09:22:44;;;;;;;2.53;1.38;;;19.80;74.70;;;;;;5129798;27;20075;-79
2022/04/19 09:25:19;;;;;;;2.47;1.23;;;19.70;75.70;;;;;;5112528;27;20043;-80
2022/04/19 09:27:49;;;;;;;2.45;1.30;;;19.60;75.40;;;;;;5129509;27;20031;-79
2022/04/19 09:30:28;;;;;;;3.28;1.55;;;19.50;76.10;;;;;;5078676;27;20092;-80
2022/04/19 09:33:06;;;;;;;3.53;1.73;;;19.50;76.70;;;;;;5112537;27;20046;-80
2022/04/19 09:35:35;;;;;;;2.30;1.42;;;19.70;77.20;;;;;;5112722;27;20071;-80
2022/04/19 09:38:02;;;;;;;2.97;1.50;;;20.30;76.80;;;;;;5129737;27;20035;-80
2022/04/19 09:40:29;;;;;;;2.10;1.63;;;20.40;76.60;;;;;;5095923;27;20386;-80
2022/04/19 09:42:55;;;;;;;2.72;1.40;;;20.70;75.30;;;;;;5129531;27;20101;-80
2022/04/19 09:45:23;;;;;;;3.63;1.88;;;20.70;74.50;;;;;;5112306;27;20139;-80
2022/04/19 09:47:52;;;;;;;2.33;1.40;;;20.90;75.30;;;;;;5129269;27;20039;-80
2022/04/19 09:50:18;;;;;;;4.50;1.50;;;21.20;74.00;;;;;;5125739;27;20611;-80
2022/04/19 09:52:48;;;;;;;4.00;1.45;;;21.30;74.40;;;;;;5112279;28;20079;-80
2022/04/19 09:55:15;;;;;;;3.20;1.70;;;21.30;73.70;;;;;;5095491;28;20039;-80
2022/04/19 09:57:41;;;;;;;2.33;1.58;;;21.00;74.50;;;;;;5129703;27;20110;-80
2022/04/19 10:00:13;;;;;;;3.03;1.63;;;21.10;74.40;;;;;;5128319;27;20510;-80
2022/04/19 10:08:19;;;;;;;3.45;1.40;;;20.90;73.30;;;;;;5129000;28;20050;-80
2022/04/19 10:10:47;;;;;;;2.78;1.50;;;20.70;74.00;;;;;;5112279;28;20367;-80
2022/04/19 10:13:13;;;;;;;3.65;1.40;;;21.00;73.30;;;;;;5111781;28;20046;-79
2022/04/19 10:15:40;;;;;;;;;;;21.20;74.00;;;;;;5108051;28;20031;-80
2022/04/19 10:18:07;;;;;;;4.20;1.83;;;21.10;73.50;;;;;;5111694;27;20000;-80
2022/04/19 10:20:41;;;;;;;2.45;1.63;;;21.50;73.60;;;;;;5129225;27;21024;-79
2022/04/19 10:23:09;;;;;;;3.25;1.30;;;21.40;73.40;;;;;;5111508;28;20059;-80
2022/04/19 10:25:44;;;;;;;2.28;1.40;;;21.50;73.50;;;;;;5129269;27;20107;-80
2022/04/19 10:28:15;;;;;;;3.25;1.58;;;21.70;72.40;;;;;;5111682;28;20039;-80
2022/04/19 10:30:51;;;;;;;3.28;1.60;;;21.70;72.30;;;;;;5129073;27;20120;-80
2022/04/19 10:33:39;;;;;;;2.40;1.50;;;21.50;73.20;;;;;;5111829;28;20039;-78
2022/04/19 10:36:33;;;;;;;2.20;1.42;;;21.60;72.80;;;;;;5111905;28;20031;-80
2022/04/19 10:39:10;;;;;;;1.77;1.30;;;21.80;72.00;;;;;;5113124;27;20035;-79
2022/04/19 10:41:48;;;;;;;2.47;1.40;;;21.40;72.10;;;;;;5129050;27;20122;-80
2022/04/19 10:44:22;;;;;;;1.83;1.40;;;21.50;71.80;;;;;;5111792;27;20578;-79
2022/04/19 10:47:00;;;;;;;2.40;1.42;;;21.40;72.70;;;;;;5128761;27;20043;-80
2022/04/19 10:49:26;;;;;;;2.22;1.60;;;21.30;72.80;;;;;;5111262;27;20039;-78
2022/04/19 10:51:52;;;;;;;2.15;1.48;;;21.70;72.30;;;;;;5112044;28;20039;-80
2022/04/19 10:54:55;;;;;;;3.10;1.40;;;21.90;72.40;;;;;;5128390;28;20047;-74
2022/04/19 11:00:41;;;;;;;3.42;2.10;;;22.20;73.20;;;;;;5128872;27;20069;-73
2022/04/19 11:03:11;;;;;;;3.30;1.80;;;22.20;73.30;;;;;;5111954;28;20372;-74
2022/04/19 11:05:43;;;;;;;4.13;1.58;;;22.40;72.40;;;;;;5129104;28;20390;-75
2022/04/19 11:08:26;;;;;;;2.10;1.17;;;22.20;73.90;;;;;;5128665;27;20070;-74
2022/04/19 11:11:21;;;;;;;3.35;1.55;;;22.20;73.20;;;;;;5128742;27;20108;-75
2022/04/19 11:14:19;;;;;;;5.15;1.75;;;22.40;72.50;;;;;;5132533;27;20084;-73
2022/04/19 11:16:49;;;;;;;3.78;1.67;;;22.80;71.00;;;;;;5132314;27;20039;-74
2022/04/19 11:19:23;;;;;;;2.15;1.60;;;22.60;71.10;;;;;;5132304;27;20051;-75
2022/04/19 11:22:01;;;;;;;2.10;1.40;;;22.90;71.60;;;;;;5132015;27;20035;-74
2022/04/19 11:25:06;;;;;;;3.35;1.58;;;22.90;70.90;;;;;;5131706;27;20039;-74
2022/04/19 11:27:53;;;;;;;2.58;1.58;;;22.10;70.70;;;;;;5132086;27;20499;-75
2022/04/19 11:30:20;;;;;;;4.85;1.50;;;22.00;72.00;;;;;;5131567;27;20039;-75
2022/04/19 11:32:50;;;;;;;3.72;1.65;;;22.90;70.90;;;;;;5132211;27;20061;-74
2022/04/19 11:35:17;;;;;;;2.95;1.52;;;22.90;70.30;;;;;;5131661;27;20070;-74
2022/04/19 11:37:43;;;;;;;2.00;1.23;;;22.90;71.20;;;;;;5131882;27;20039;-74
2022/04/19 11:48:50;;;;;;;2.72;1.10;;;23.00;70.30;;;;;;5131734;27;20135;-75
2022/04/19 11:51:20;;;;;;;2.88;1.60;;;23.00;70.40;;;;;;5131641;27;20039;-74
2022/04/19 11:53:47;;;;;;;1.95;1.27;;;23.00;69.40;;;;;;5114417;27;20035;-75
2022/04/19 11:56:16;;;;;;;2.88;1.60;;;22.70;69.50;;;;;;5114454;27;20043;-74
2022/04/19 11:58:47;;;;;;;3.83;1.65;;;22.50;70.90;;;;;;5131485;27;20047;-74
2022/04/19 12:01:14;;;;;;;4.13;1.85;;;23.20;70.60;;;;;;5131790;27;20390;-74
2022/04/19 12:03:40;;;;;;;2.65;1.50;;;22.70;70.80;;;;;;5114214;27;20505;-74
2022/04/19 12:06:14;;;;;;;3.78;1.58;;;22.90;70.80;;;;;;5131562;27;20031;-74
2022/04/19 12:08:43;;;;;;;2.60;1.52;;;22.90;70.40;;;;;;5130869;27;20104;-75
2022/04/19 12:11:17;;;;;;;3.35;1.58;;;23.10;69.90;;;;;;5131485;27;20041;-75
2022/04/19 12:13:44;;;;;;;2.45;1.35;;;23.20;69.10;;;;;;5131375;27;20486;-74
2022/04/19 12:16:30;;;;;;;3.05;1.02;;;22.70;69.40;;;;;;5113886;27;20047;-74
2022/04/19 12:18:58;;;;;;;2.95;1.58;;;22.50;69.40;;;;;;5130890;27;20039;-75
2022/04/19 12:21:36;;;;;;;3.42;1.45;;;22.10;69.50;;;;;;5130765;27;20043;-75
2022/04/19 12:24:03;;;;;;;2.85;1.90;;;22.40;69.70;;;;;;5113302;27;20068;-75
2022/04/19 12:26:28;;;;;;;2.58;1.65;;;22.00;70.20;;;;;;5130479;27;20041;-74
2022/04/19 12:29:05;;;;;;;;;;;22.00;72.10;;;;;;5114334;27;20031;-75
2022/04/19 12:31:37;;;;;;;3.00;1.58;;;22.80;71.00;;;;;;5130769;27;19915;-74
2022/04/19 12:34:04;;;;;;;1.80;1.13;;;22.50;70.20;;;;;;5130604;27;20039;-75
2022/04/19 12:36:50;;;;;;;2.42;1.08;;;22.70;71.10;;;;;;5130247;27;20027;-75
2022/04/19 12:39:21;;;;;;;6.55;1.30;;;23.00;70.00;;;;;;5130976;27;20100;-75
2022/04/19 12:41:49;;;;;;;1.60;1.00;;;22.20;68.90;;;;;;5132361;27;20112;-74
2022/04/19 12:44:16;;;;;;;2.63;1.20;;;22.60;70.30;;;;;;5120956;27;20038;-74
2022/04/19 12:46:48;;;;;;;2.03;1.13;;;22.20;68.40;;;;;;5137118;27;20111;-75
2022/04/19 12:49:24;;;;;;;2.45;1.30;;;22.30;69.50;;;;;;5137387;27;20042;-75
2022/04/19 12:51:59;;;;;;;2.22;1.10;;;22.60;69.70;;;;;;5155054;27;20454;-75
2022/04/19 12:54:29;;;;;;;2.63;1.45;;;22.50;69.50;;;;;;5154006;27;20129;-75
2022/04/19 12:57:01;;;;;;;2.38;1.40;;;22.80;70.30;;;;;;5154646;27;20045;-75
2022/04/19 12:59:32;;;;;;;2.75;1.70;;;23.00;70.00;;;;;;5131870;27;20045;-74
2022/04/19 13:01:58;;;;;;;3.20;2.13;;;22.40;71.40;;;;;;5133848;27;20117;-75
2022/04/19 13:04:23;;;;;;;;;;;22.20;70.60;;;;;;5100087;27;20558;-74
2022/04/19 13:12:23;;;;;;;3.42;2.00;;;22.70;70.40;;;;;;5119527;27;20046;-74
2022/04/19 13:14:51;;;;;;;3.35;1.90;;;23.10;70.60;;;;;;5133916;27;20723;-74
2022/04/19 13:17:18;;;;;;;3.13;1.90;;;22.80;70.00;;;;;;5134042;27;20039;-76
2022/04/19 13:19:45;;;;;;;3.65;1.90;;;22.60;70.20;;;;;;5133422;27;20478;-75
2022/04/19 13:22:11;;;;;;;2.83;2.10;;;22.70;70.50;;;;;;5134083;27;20394;-75
2022/04/19 13:24:38;;;;;;;2.22;1.80;;;22.50;70.70;;;;;;5133300;27;20070;-75
2022/04/19 13:27:08;;;;;;;2.42;1.95;;;22.50;70.40;;;;;;5133275;27;20107;-75
2022/04/19 13:29:34;;;;;;;3.92;2.03;;;22.20;70.90;;;;;;5133453;27;20398;-75
2022/04/19 13:32:01;;;;;;;3.22;2.20;;;22.40;70.90;;;;;;5133284;27;20027;-75
2022/04/19 13:34:28;;;;;;;3.85;2.10;;;22.70;71.90;;;;;;5113110;27;20070;-75
2022/04/19 13:36:56;;;;;;;4.15;2.45;;;22.60;70.00;;;;;;5132788;27;20034;-74